sensor_id;sensor_type;location;lat;lon;timestamp;pressure;altitude;pressure_sealevel;temperature;humidity
29935;BME280;19905;53.370;-6.314;2023-02-20T00:02:22;101693.97;;;9.99;100.00
29935;BME280;19905;53.370;-6.314;2023-02-20T00:04:51;101707.69;;;10.05;100.00
29935;BME280;19905;53.370;-6.314;2023-02-20T00:07:19;101707.78;;;10.04;100.00
29935;BME280;19905;53.370;-6.314;2023-02-20T00:09:48;101703.41;;;10.03;100.00
29935;BME280;19905;53.370;-6.314;2023-02-20T00:12:18;101713.06;;;10.04;100.00
29935;BME280;19905;53.370;-6.314;2023-02-20T00:14:46;101706.84;;;10.05;100.00
29935;BME280;19905;53.370;-6.314;2023-02-20T00:17:15;101696.44;;;10.02;100.00
29935;BME280;19905;53.370;-6.314;2023-02-20T00:19:44;101696.28;;;10.05;100.00
29935;BME280;19905;53.370;-6.314;2023-02-20T00:22:13;101711.16;;;10.06;100.00
29935;BME280;19905;53.370;-6.314;2023-02-20T00:24:41;101709.53;;;10.03;100.00
29935;BME280;19905;53.370;-6.314;2023-02-20T00:27:11;101724.47;;;10.04;100.00
29935;BME280;19905;53.370;-6.314;2023-02-20T00:29:43;101713.06;;;10.04;100.00
29935;BME280;19905;53.370;-6.314;2023-02-20T00:32:12;101666.19;;;10.07;100.00
29935;BME280;19905;53.370;-6.314;2023-02-20T00:34:41;101718.66;;;10.13;100.00
29935;BME280;19905;53.370;-6.314;2023-02-20T00:37:09;101703.94;;;10.09;100.00
29935;BME280;19905;53.370;-6.314;2023-02-20T00:39:37;101701.28;;;10.09;100.00
29935;BME280;19905;53.370;-6.314;2023-02-20T00:42:06;101689.78;;;10.10;100.00
29935;BME280;19905;53.370;-6.314;2023-02-20T00:44:34;101701.28;;;10.09;100.00
29935;BME280;19905;53.370;-6.314;2023-02-20T00:47:04;101709.00;;;10.12;100.00
29935;BME280;19905;53.370;-6.314;2023-02-20T00:49:32;101701.28;;;10.09;100.00
29935;BME280;19905;53.370;-6.314;2023-02-20T00:52:01;101710.16;;;10.08;100.00
29935;BME280;19905;53.370;-6.314;2023-02-20T00:54:32;101696.84;;;10.10;100.00
29935;BME280;19905;53.370;-6.314;2023-02-20T00:57:06;101709.63;;;10.17;100.00
29935;BME280;19905;53.370;-6.314;2023-02-20T00:59:35;101698.38;;;10.14;100.00
29935;BME280;19905;53.370;-6.314;2023-02-20T01:02:05;101694.97;;;10.12;100.00
29935;BME280;19905;53.370;-6.314;2023-02-20T01:04:35;101702.97;;;10.10;100.00
29935;BME280;19905;53.370;-6.314;2023-02-20T01:07:03;101714.13;;;10.15;100.00
29935;BME280;19905;53.370;-6.314;2023-02-20T01:09:32;101699.50;;;10.10;100.00
29935;BME280;19905;53.370;-6.314;2023-02-20T01:12:00;101687.03;;;10.12;100.00
29935;BME280;19905;53.370;-6.314;2023-02-20T01:14:29;101680.06;;;10.11;100.00
29935;BME280;19905;53.370;-6.314;2023-02-20T01:16:58;101675.72;;;10.10;100.00
29935;BME280;19905;53.370;-6.314;2023-02-20T01:19:28;101673.78;;;10.13;100.00
29935;BME280;19905;53.370;-6.314;2023-02-20T01:21:57;101668.22;;;10.18;100.00
29935;BME280;19905;53.370;-6.314;2023-02-20T01:24:26;101653.28;;;10.17;100.00
29935;BME280;19905;53.370;-6.314;2023-02-20T01:26:54;101663.53;;;10.07;100.00
29935;BME280;19905;53.370;-6.314;2023-02-20T01:29:22;101651.41;;;10.05;100.00
29935;BME280;19905;53.370;-6.314;2023-02-20T01:31:51;101680.50;;;10.03;100.00
29935;BME280;19905;53.370;-6.314;2023-02-20T01:34:21;101683.81;;;10.07;100.00
29935;BME280;19905;53.370;-6.314;2023-02-20T01:36:53;101668.66;;;10.10;100.00
29935;BME280;19905;53.370;-6.314;2023-02-20T01:39:23;101679.78;;;10.15;100.00
29935;BME280;19905;53.370;-6.314;2023-02-20T01:41:55;101682.59;;;10.12;100.00
29935;BME280;19905;53.370;-6.314;2023-02-20T01:44:27;101673.66;;;10.15;100.00
29935;BME280;19905;53.370;-6.314;2023-02-20T01:46:55;101684.22;;;10.15;100.00
29935;BME280;19905;53.370;-6.314;2023-02-20T01:49:29;101674.78;;;10.11;100.00
29935;BME280;19905;53.370;-6.314;2023-02-20T01:52:05;101669.41;;;10.12;100.00
29935;BME280;19905;53.370;-6.314;2023-02-20T01:54:38;101670.66;;;10.21;100.00
29935;BME280;19905;53.370;-6.314;2023-02-20T01:57:08;101658.66;;;10.15;100.00
29935;BME280;19905;53.370;-6.314;2023-02-20T01:59:41;101644.53;;;10.16;100.00
29935;BME280;19905;53.370;-6.314;2023-02-20T02:02:11;101643.09;;;10.11;100.00
29935;BME280;19905;53.370;-6.314;2023-02-20T02:04:40;101650.56;;;10.04;100.00
29935;BME280;19905;53.370;-6.314;2023-02-20T02:07:13;101661.75;;;10.08;100.00
29935;BME280;19905;53.370;-6.314;2023-02-20T02:09:48;101685.78;;;10.03;100.00
29935;BME280;19905;53.370;-6.314;2023-02-20T02:12:18;101640.84;;;10.05;100.00
29935;BME280;19905;53.370;-6.314;2023-02-20T02:14:46;101667.81;;;10.10;100.00
29935;BME280;19905;53.370;-6.314;2023-02-20T02:17:33;101654.44;;;10.13;100.00
29935;BME280;19905;53.370;-6.314;2023-02-20T02:20:33;101653.09;;;10.06;100.00
29935;BME280;19905;53.370;-6.314;2023-02-20T02:26:46;101631.69;;;10.10;100.00
29935;BME280;19905;53.370;-6.314;2023-02-20T02:29:45;101651.97;;;10.10;100.00
29935;BME280;19905;53.370;-6.314;2023-02-20T02:32:57;101638.88;;;10.08;100.00
29935;BME280;19905;53.370;-6.314;2023-02-20T02:38:41;101658.63;;;10.01;100.00
29935;BME280;19905;53.370;-6.314;2023-02-20T02:41:19;101661.28;;;10.01;100.00
29935;BME280;19905;53.370;-6.314;2023-02-20T02:43:55;101655.91;;;10.03;100.00
29935;BME280;19905;53.370;-6.314;2023-02-20T02:46:32;101645.91;;;10.08;100.00
29935;BME280;19905;53.370;-6.314;2023-02-20T02:49:06;101653.66;;;10.11;100.00
29935;BME280;19905;53.370;-6.314;2023-02-20T02:51:39;101660.75;;;10.10;100.00
29935;BME280;19905;53.370;-6.314;2023-02-20T02:54:17;101661.41;;;10.14;100.00
29935;BME280;19905;53.370;-6.314;2023-02-20T02:56:48;101649.91;;;10.15;100.00
29935;BME280;19905;53.370;-6.314;2023-02-20T02:59:22;101648.38;;;10.11;100.00
29935;BME280;19905;53.370;-6.314;2023-02-20T03:01:56;101647.09;;;10.18;100.00
29935;BME280;19905;53.370;-6.314;2023-02-20T03:04:27;101655.19;;;10.15;100.00
29935;BME280;19905;53.370;-6.314;2023-02-20T03:07:01;101656.88;;;10.16;100.00
29935;BME280;19905;53.370;-6.314;2023-02-20T03:09:36;101646.88;;;10.21;100.00
29935;BME280;19905;53.370;-6.314;2023-02-20T03:12:07;101642.84;;;10.15;100.00
29935;BME280;19905;53.370;-6.314;2023-02-20T03:14:40;101650.66;;;10.17;100.00
29935;BME280;19905;53.370;-6.314;2023-02-20T03:17:31;101643.78;;;10.14;100.00
29935;BME280;19905;53.370;-6.314;2023-02-20T03:20:02;101641.13;;;10.14;100.00
29935;BME280;19905;53.370;-6.314;2023-02-20T03:22:36;101636.72;;;10.15;100.00
29935;BME280;19905;53.370;-6.314;2023-02-20T03:25:11;101634.91;;;10.15;100.00
29935;BME280;19905;53.370;-6.314;2023-02-20T03:27:43;101656.13;;;10.14;100.00
29935;BME280;19905;53.370;-6.314;2023-02-20T03:30:16;101645.38;;;10.17;100.00
29935;BME280;19905;53.370;-6.314;2023-02-20T03:32:52;101634.75;;;10.18;100.00
29935;BME280;19905;53.370;-6.314;2023-02-20T03:35:41;101636.94;;;10.26;100.00
29935;BME280;19905;53.370;-6.314;2023-02-20T03:38:30;101633.13;;;10.16;100.00
29935;BME280;19905;53.370;-6.314;2023-02-20T03:41:22;101624.91;;;10.21;100.00
29935;BME280;19905;53.370;-6.314;2023-02-20T03:44:12;101630.13;;;10.22;100.00
29935;BME280;19905;53.370;-6.314;2023-02-20T03:46:44;101631.16;;;10.19;100.00
29935;BME280;19905;53.370;-6.314;2023-02-20T03:49:19;101627.38;;;10.24;100.00
29935;BME280;19905;53.370;-6.314;2023-02-20T03:51:49;101616.25;;;10.18;100.00
29935;BME280;19905;53.370;-6.314;2023-02-20T03:54:28;101618.06;;;10.18;100.00
29935;BME280;19905;53.370;-6.314;2023-02-20T03:57:03;101627.50;;;10.22;100.00
29935;BME280;19905;53.370;-6.314;2023-02-20T03:59:36;101629.19;;;10.23;100.00
29935;BME280;19905;53.370;-6.314;2023-02-20T04:02:09;101626.38;;;10.26;100.00
29935;BME280;19905;53.370;-6.314;2023-02-20T04:04:43;101615.41;;;10.18;100.00
29935;BME280;19905;53.370;-6.314;2023-02-20T04:07:17;101613.63;;;10.18;100.00
29935;BME280;19905;53.370;-6.314;2023-02-20T04:09:47;101609.06;;;10.21;100.00
29935;BME280;19905;53.370;-6.314;2023-02-20T04:12:21;101609.00;;;10.22;100.00
29935;BME280;19905;53.370;-6.314;2023-02-20T04:14:51;101612.50;;;10.23;100.00
29935;BME280;19905;53.370;-6.314;2023-02-20T04:17:24;101597.50;;;10.23;100.00
29935;BME280;19905;53.370;-6.314;2023-02-20T04:19:53;101618.91;;;10.18;100.00
29935;BME280;19905;53.370;-6.314;2023-02-20T04:22:24;101601.44;;;10.16;100.00
29935;BME280;19905;53.370;-6.314;2023-02-20T04:24:57;101601.53;;;10.14;100.00
29935;BME280;19905;53.370;-6.314;2023-02-20T04:27:30;101603.41;;;10.12;100.00
29935;BME280;19905;53.370;-6.314;2023-02-20T04:29:59;101599.06;;;10.11;100.00
29935;BME280;19905;53.370;-6.314;2023-02-20T04:32:28;101604.34;;;10.11;100.00
29935;BME280;19905;53.370;-6.314;2023-02-20T04:34:56;101607.00;;;10.11;100.00
29935;BME280;19905;53.370;-6.314;2023-02-20T04:37:25;101611.44;;;10.11;100.00
29935;BME280;19905;53.370;-6.314;2023-02-20T04:39:53;101615.00;;;10.10;100.00
29935;BME280;19905;53.370;-6.314;2023-02-20T04:42:22;101612.47;;;10.08;100.00
29935;BME280;19905;53.370;-6.314;2023-02-20T04:44:52;101611.69;;;10.06;100.00
29935;BME280;19905;53.370;-6.314;2023-02-20T04:47:21;101603.94;;;10.03;100.00
29935;BME280;19905;53.370;-6.314;2023-02-20T04:49:52;101602.00;;;10.07;100.00
29935;BME280;19905;53.370;-6.314;2023-02-20T04:52:20;101616.13;;;10.06;100.00
29935;BME280;19905;53.370;-6.314;2023-02-20T04:54:50;101599.34;;;10.07;100.00
29935;BME280;19905;53.370;-6.314;2023-02-20T04:57:19;101614.34;;;10.06;100.00
29935;BME280;19905;53.370;-6.314;2023-02-20T04:59:48;101619.63;;;10.06;100.00
29935;BME280;19905;53.370;-6.314;2023-02-20T05:02:18;101606.25;;;10.09;100.00
29935;BME280;19905;53.370;-6.314;2023-02-20T05:04:46;101605.31;;;10.10;100.00
29935;BME280;19905;53.370;-6.314;2023-02-20T05:07:16;101604.56;;;10.08;100.00
29935;BME280;19905;53.370;-6.314;2023-02-20T05:09:45;101611.81;;;10.05;100.00
29935;BME280;19905;53.370;-6.314;2023-02-20T05:12:13;101626.69;;;10.06;100.00
29935;BME280;19905;53.370;-6.314;2023-02-20T05:14:42;101604.34;;;10.11;100.00
29935;BME280;19905;53.370;-6.314;2023-02-20T05:17:10;101607.38;;;10.05;100.00
29935;BME280;19905;53.370;-6.314;2023-02-20T05:19:40;101607.00;;;10.11;100.00
29935;BME280;19905;53.370;-6.314;2023-02-20T05:22:10;101600.97;;;10.09;100.00
29935;BME280;19905;53.370;-6.314;2023-02-20T05:24:49;101599.34;;;10.07;100.00
29935;BME280;19905;53.370;-6.314;2023-02-20T05:27:21;101605.47;;;10.07;100.00
29935;BME280;19905;53.370;-6.314;2023-02-20T05:29:51;101584.00;;;10.13;100.00
29935;BME280;19905;53.370;-6.314;2023-02-20T05:32:21;101594.00;;;10.08;100.00
29935;BME280;19905;53.370;-6.314;2023-02-20T05:34:52;101593.13;;;10.08;100.00
29935;BME280;19905;53.370;-6.314;2023-02-20T05:37:23;101611.59;;;10.08;100.00
29935;BME280;19905;53.370;-6.314;2023-02-20T05:39:52;101593.78;;;10.11;100.00
29935;BME280;19905;53.370;-6.314;2023-02-20T05:42:21;101597.47;;;10.09;100.00
29935;BME280;19905;53.370;-6.314;2023-02-20T05:44:49;101607.09;;;10.10;100.00
29935;BME280;19905;53.370;-6.314;2023-02-20T05:47:18;101594.56;;;10.13;100.00
29935;BME280;19905;53.370;-6.314;2023-02-20T05:49:46;101604.44;;;10.10;100.00
29935;BME280;19905;53.370;-6.314;2023-02-20T05:52:17;101595.22;;;10.17;100.00
29935;BME280;19905;53.370;-6.314;2023-02-20T05:54:45;101599.91;;;10.12;100.00
29935;BME280;19905;53.370;-6.314;2023-02-20T05:57:14;101609.72;;;10.10;100.00
29935;BME280;19905;53.370;-6.314;2023-02-20T05:59:43;101623.69;;;10.12;100.00
29935;BME280;19905;53.370;-6.314;2023-02-20T06:02:11;101619.16;;;10.14;100.00
29935;BME280;19905;53.370;-6.314;2023-02-20T06:04:40;101618.22;;;10.15;100.00
29935;BME280;19905;53.370;-6.314;2023-02-20T06:07:08;101604.19;;;10.14;100.00
29935;BME280;19905;53.370;-6.314;2023-02-20T06:09:40;101597.28;;;10.12;100.00
29935;BME280;19905;53.370;-6.314;2023-02-20T06:12:10;101591.81;;;10.15;100.00
29935;BME280;19905;53.370;-6.314;2023-02-20T06:14:40;101602.56;;;10.12;100.00
29935;BME280;19905;53.370;-6.314;2023-02-20T06:17:09;101593.78;;;10.11;100.00
29935;BME280;19905;53.370;-6.314;2023-02-20T06:19:37;101597.28;;;10.12;100.00
29935;BME280;19905;53.370;-6.314;2023-02-20T06:22:06;101596.72;;;10.07;100.00
29935;BME280;19905;53.370;-6.314;2023-02-20T06:24:34;101599.63;;;10.02;100.00
29935;BME280;19905;53.370;-6.314;2023-02-20T06:27:04;101599.56;;;10.04;100.00
29935;BME280;19905;53.370;-6.314;2023-02-20T06:29:34;101599.84;;;9.99;100.00
29935;BME280;19905;53.370;-6.314;2023-02-20T06:32:03;101604.16;;;10.00;100.00
29935;BME280;19905;53.370;-6.314;2023-02-20T06:34:32;101598.03;;;10.00;100.00
29935;BME280;19905;53.370;-6.314;2023-02-20T06:37:01;101600.75;;;9.98;100.00
29935;BME280;19905;53.370;-6.314;2023-02-20T06:39:31;101604.22;;;9.99;100.00
29935;BME280;19905;53.370;-6.314;2023-02-20T06:42:00;101616.84;;;9.93;100.00
29935;BME280;19905;53.370;-6.314;2023-02-20T06:44:30;101594.44;;;10.01;100.00
29935;BME280;19905;53.370;-6.314;2023-02-20T06:46:59;101606.97;;;9.97;100.00
29935;BME280;19905;53.370;-6.314;2023-02-20T06:49:27;101607.81;;;9.98;100.00
29935;BME280;19905;53.370;-6.314;2023-02-20T06:51:56;101598.94;;;9.99;100.00
29935;BME280;19905;53.370;-6.314;2023-02-20T06:54:24;101591.81;;;10.01;100.00
29935;BME280;19905;53.370;-6.314;2023-02-20T06:56:53;101593.78;;;9.97;100.00
29935;BME280;19905;53.370;-6.314;2023-02-20T06:59:22;101608.19;;;9.91;100.00
29935;BME280;19905;53.370;-6.314;2023-02-20T07:01:52;101612.78;;;9.88;100.00
29935;BME280;19905;53.370;-6.314;2023-02-20T07:04:24;101629.19;;;9.93;100.00
29935;BME280;19905;53.370;-6.314;2023-02-20T07:06:54;101629.47;;;9.88;100.00
29935;BME280;19905;53.370;-6.314;2023-02-20T07:09:22;101622.13;;;9.93;100.00
29935;BME280;19905;53.370;-6.314;2023-02-20T07:11:52;101623.09;;;9.92;100.00
29935;BME280;19905;53.370;-6.314;2023-02-20T07:14:21;101636.38;;;9.91;100.00
29935;BME280;19905;53.370;-6.314;2023-02-20T07:16:49;101618.75;;;9.91;100.00
29935;BME280;19905;53.370;-6.314;2023-02-20T07:19:20;101619.31;;;9.97;100.00
29935;BME280;19905;53.370;-6.314;2023-02-20T07:21:48;101613.31;;;9.95;100.00
29935;BME280;19905;53.370;-6.314;2023-02-20T07:24:17;101611.41;;;9.97;100.00
29935;BME280;19905;53.370;-6.314;2023-02-20T07:26:46;101621.97;;;9.97;100.00
29935;BME280;19905;53.370;-6.314;2023-02-20T07:29:15;101634.41;;;9.95;100.00
29935;BME280;19905;53.370;-6.314;2023-02-20T07:31:44;101657.22;;;9.96;100.00
29935;BME280;19905;53.370;-6.314;2023-02-20T07:34:13;101626.28;;;9.98;100.00
29935;BME280;19905;53.370;-6.314;2023-02-20T07:36:43;101632.25;;;10.01;100.00
29935;BME280;19905;53.370;-6.314;2023-02-20T07:39:12;101642.06;;;9.99;100.00
29935;BME280;19905;53.370;-6.314;2023-02-20T07:41:41;101654.97;;;10.04;100.00
29935;BME280;19905;53.370;-6.314;2023-02-20T07:44:10;101633.25;;;9.99;100.00
29935;BME280;19905;53.370;-6.314;2023-02-20T07:46:41;101638.53;;;9.99;100.00
29935;BME280;19905;53.370;-6.314;2023-02-20T07:49:10;101630.72;;;9.97;100.00
29935;BME280;19905;53.370;-6.314;2023-02-20T07:51:42;101636.00;;;9.97;100.00
29935;BME280;19905;53.370;-6.314;2023-02-20T07:54:12;101640.59;;;9.93;100.00
29935;BME280;19905;53.370;-6.314;2023-02-20T07:56:41;101632.53;;;9.97;100.00
29935;BME280;19905;53.370;-6.314;2023-02-20T07:59:10;101624.06;;;10.06;100.00
29935;BME280;19905;53.370;-6.314;2023-02-20T08:01:39;101615.47;;;10.02;100.00
29935;BME280;19905;53.370;-6.314;2023-02-20T08:04:07;101629.44;;;10.04;100.00
29935;BME280;19905;53.370;-6.314;2023-02-20T08:06:36;101630.06;;;10.08;100.00
29935;BME280;19905;53.370;-6.314;2023-02-20T08:09:07;101621.31;;;10.07;100.00
29935;BME280;19905;53.370;-6.314;2023-02-20T08:11:36;101630.84;;;10.10;100.00
29935;BME280;19905;53.370;-6.314;2023-02-20T08:14:05;101634.91;;;10.15;100.00
29935;BME280;19905;53.370;-6.314;2023-02-20T08:16:34;101630.56;;;10.14;100.00
29935;BME280;19905;53.370;-6.314;2023-02-20T08:19:03;101651.53;;;10.17;100.00
29935;BME280;19905;53.370;-6.314;2023-02-20T08:21:32;101638.91;;;10.23;100.00
29935;BME280;19905;53.370;-6.314;2023-02-20T08:24:01;101644.00;;;10.26;100.00
29935;BME280;19905;53.370;-6.314;2023-02-20T08:26:31;101648.50;;;10.24;100.00
29935;BME280;19905;53.370;-6.314;2023-02-20T08:29:01;101645.72;;;10.27;100.00
29935;BME280;19905;53.370;-6.314;2023-02-20T08:31:29;101644.50;;;10.32;100.00
29935;BME280;19905;53.370;-6.314;2023-02-20T08:33:59;101643.72;;;10.30;100.00
29935;BME280;19905;53.370;-6.314;2023-02-20T08:36:28;101639.97;;;10.34;100.00
29935;BME280;19905;53.370;-6.314;2023-02-20T08:38:57;101631.19;;;10.34;100.00
29935;BME280;19905;53.370;-6.314;2023-02-20T08:41:30;101634.13;;;10.43;100.00
29935;BME280;19905;53.370;-6.314;2023-02-20T08:43:59;101681.88;;;10.40;100.00
29935;BME280;19905;53.370;-6.314;2023-02-20T08:46:29;101636.88;;;10.42;100.00
29935;BME280;19905;53.370;-6.314;2023-02-20T08:48:57;101639.34;;;10.45;100.00
29935;BME280;19905;53.370;-6.314;2023-02-20T08:51:25;101633.00;;;10.48;100.00
29935;BME280;19905;53.370;-6.314;2023-02-20T08:53:54;101614.16;;;10.54;100.00
29935;BME280;19905;53.370;-6.314;2023-02-20T08:56:23;101627.25;;;10.55;100.00
29935;BME280;19905;53.370;-6.314;2023-02-20T08:58:52;101636.13;;;10.54;100.00
29935;BME280;19905;53.370;-6.314;2023-02-20T09:01:21;101636.69;;;10.59;100.00
29935;BME280;19905;53.370;-6.314;2023-02-20T09:03:51;101636.47;;;10.62;100.00
29935;BME280;19905;53.370;-6.314;2023-02-20T09:06:19;101630.06;;;10.66;100.00
29935;BME280;19905;53.370;-6.314;2023-02-20T09:08:50;101633.66;;;10.65;100.00
29935;BME280;19905;53.370;-6.314;2023-02-20T09:11:19;101622.91;;;10.68;100.00
29935;BME280;19905;53.370;-6.314;2023-02-20T09:13:49;101632.06;;;10.77;100.00
29935;BME280;19905;53.370;-6.314;2023-02-20T09:16:22;101643.66;;;10.75;100.00
29935;BME280;19905;53.370;-6.314;2023-02-20T09:18:51;101638.25;;;10.76;100.00
29935;BME280;19905;53.370;-6.314;2023-02-20T09:21:23;101641.84;;;10.75;100.00
29935;BME280;19905;53.370;-6.314;2023-02-20T09:23:53;101648.84;;;10.76;100.00
29935;BME280;19905;53.370;-6.314;2023-02-20T09:26:24;101639.03;;;10.78;100.00
29935;BME280;19905;53.370;-6.314;2023-02-20T09:28:53;101640.72;;;10.79;100.00
29935;BME280;19905;53.370;-6.314;2023-02-20T09:31:23;101637.34;;;10.77;100.00
29935;BME280;19905;53.370;-6.314;2023-02-20T09:33:52;101637.97;;;10.81;100.00
29935;BME280;19905;53.370;-6.314;2023-02-20T09:36:20;101637.41;;;10.76;100.00
29935;BME280;19905;53.370;-6.314;2023-02-20T09:38:49;101653.00;;;10.80;100.00
29935;BME280;19905;53.370;-6.314;2023-02-20T09:41:27;101648.25;;;10.85;100.00
29935;BME280;19905;53.370;-6.314;2023-02-20T09:44:10;101640.53;;;10.82;100.00
29935;BME280;19905;53.370;-6.314;2023-02-20T09:46:43;101641.22;;;10.86;100.00
29935;BME280;19905;53.370;-6.314;2023-02-20T09:49:16;101641.78;;;10.91;100.00
29935;BME280;19905;53.370;-6.314;2023-02-20T09:51:50;101646.75;;;10.96;100.00
29935;BME280;19905;53.370;-6.314;2023-02-20T09:54:25;101648.63;;;10.93;100.00
29935;BME280;19905;53.370;-6.314;2023-02-20T09:56:58;101642.50;;;10.93;100.00
29935;BME280;19905;53.370;-6.314;2023-02-20T09:59:32;101643.91;;;10.99;100.00
29935;BME280;19905;53.370;-6.314;2023-02-20T10:02:13;101648.56;;;10.95;100.00
29935;BME280;19905;53.370;-6.314;2023-02-20T10:04:45;101634.41;;;10.96;100.00
29935;BME280;19905;53.370;-6.314;2023-02-20T10:07:28;101638.53;;;11.00;100.00
29935;BME280;19905;53.370;-6.314;2023-02-20T10:09:59;101630.09;;;11.08;100.00
29935;BME280;19905;53.370;-6.314;2023-02-20T10:12:33;101634.47;;;11.09;100.00
29935;BME280;19905;53.370;-6.314;2023-02-20T10:15:18;101623.97;;;11.07;100.00
29935;BME280;19905;53.370;-6.314;2023-02-20T10:17:57;101617.25;;;11.16;100.00
29935;BME280;19905;53.370;-6.314;2023-02-20T10:20:36;101602.88;;;11.20;100.00
29935;BME280;19905;53.370;-6.314;2023-02-20T10:23:13;101620.44;;;11.21;100.00
29935;BME280;19905;53.370;-6.314;2023-02-20T10:25:47;101612.13;;;11.27;100.00
29935;BME280;19905;53.370;-6.314;2023-02-20T10:28:19;101602.94;;;11.33;100.00
29935;BME280;19905;53.370;-6.314;2023-02-20T10:30:56;101618.50;;;11.37;100.00
29935;BME280;19905;53.370;-6.314;2023-02-20T10:33:32;101592.44;;;11.31;100.00
29935;BME280;19905;53.370;-6.314;2023-02-20T10:36:08;101598.94;;;11.40;100.00
29935;BME280;19905;53.370;-6.314;2023-02-20T10:38:44;101591.00;;;11.40;100.00
29935;BME280;19905;53.370;-6.314;2023-02-20T10:41:21;101596.81;;;11.45;100.00
29935;BME280;19905;53.370;-6.314;2023-02-20T10:43:54;101573.66;;;11.49;100.00
29935;BME280;19905;53.370;-6.314;2023-02-20T10:46:28;101576.53;;;11.45;100.00
29935;BME280;19905;53.370;-6.314;2023-02-20T10:49:19;101573.91;;;11.58;100.00
29935;BME280;19905;53.370;-6.314;2023-02-20T10:51:56;101559.97;;;11.69;100.00
29935;BME280;19905;53.370;-6.314;2023-02-20T10:54:31;101550.00;;;11.60;100.00
29935;BME280;19905;53.370;-6.314;2023-02-20T10:57:07;101539.31;;;11.74;100.00
29935;BME280;19905;53.370;-6.314;2023-02-20T10:59:42;101568.63;;;11.71;100.00
29935;BME280;19905;53.370;-6.314;2023-02-20T11:02:17;101556.47;;;11.68;100.00
29935;BME280;19905;53.370;-6.314;2023-02-20T11:04:54;101573.94;;;11.71;100.00
29935;BME280;19905;53.370;-6.314;2023-02-20T11:07:25;101548.00;;;11.76;100.00
29935;BME280;19905;53.370;-6.314;2023-02-20T11:09:54;101537.72;;;11.71;100.00
29935;BME280;19905;53.370;-6.314;2023-02-20T11:12:27;101553.47;;;11.87;100.00
29935;BME280;19905;53.370;-6.314;2023-02-20T11:15:03;101555.47;;;11.84;100.00
29935;BME280;19905;53.370;-6.314;2023-02-20T11:17:34;101544.56;;;11.88;100.00
29935;BME280;19905;53.370;-6.314;2023-02-20T11:20:37;101571.34;;;12.09;100.00
29935;BME280;19905;53.370;-6.314;2023-02-20T11:23:07;101544.97;;;12.20;100.00
29935;BME280;19905;53.370;-6.314;2023-02-20T11:25:38;101557.03;;;12.37;100.00
29935;BME280;19905;53.370;-6.314;2023-02-20T11:28:10;101559.91;;;12.34;100.00
29935;BME280;19905;53.370;-6.314;2023-02-20T11:30:46;101570.31;;;12.25;100.00
29935;BME280;19905;53.370;-6.314;2023-02-20T11:33:17;101549.22;;;12.10;100.00
29935;BME280;19905;53.370;-6.314;2023-02-20T11:35:49;101566.91;;;12.23;100.00
29935;BME280;19905;53.370;-6.314;2023-02-20T11:38:29;101559.59;;;12.13;100.00
29935;BME280;19905;53.370;-6.314;2023-02-20T11:41:08;101550.78;;;12.13;100.00
29935;BME280;19905;53.370;-6.314;2023-02-20T11:43:41;101573.91;;;12.11;100.00
29935;BME280;19905;53.370;-6.314;2023-02-20T11:46:27;101554.09;;;12.04;100.00
29935;BME280;19905;53.370;-6.314;2023-02-20T11:49:00;101548.91;;;12.02;100.00
29935;BME280;19905;53.370;-6.314;2023-02-20T11:51:35;101552.91;;;12.08;100.00
29935;BME280;19905;53.370;-6.314;2023-02-20T11:54:23;101528.13;;;12.09;100.00
29935;BME280;19905;53.370;-6.314;2023-02-20T11:56:59;101514.03;;;12.08;100.00
29935;BME280;19905;53.370;-6.314;2023-02-20T11:59:34;101540.13;;;12.14;100.00
29935;BME280;19905;53.370;-6.314;2023-02-20T12:02:16;101529.84;;;12.10;100.00
29935;BME280;19905;53.370;-6.314;2023-02-20T12:05:03;101543.38;;;12.18;100.00
29935;BME280;19905;53.370;-6.314;2023-02-20T12:07:36;101549.50;;;12.31;100.00
29935;BME280;19905;53.370;-6.314;2023-02-20T12:10:30;101538.91;;;12.18;100.00
29935;BME280;19905;53.370;-6.314;2023-02-20T12:13:01;101541.69;;;12.17;100.00
29935;BME280;19905;53.370;-6.314;2023-02-20T12:15:30;101543.06;;;12.23;100.00
29935;BME280;19905;53.370;-6.314;2023-02-20T12:18:24;101560.75;;;12.22;100.00
29935;BME280;19905;53.370;-6.314;2023-02-20T12:21:04;101548.47;;;12.21;100.00
29935;BME280;19905;53.370;-6.314;2023-02-20T12:23:47;101573.66;;;12.14;100.00
29935;BME280;19905;53.370;-6.314;2023-02-20T12:26:38;101543.38;;;12.18;100.00
29935;BME280;19905;53.370;-6.314;2023-02-20T12:29:23;101531.00;;;12.06;100.00
29935;BME280;19905;53.370;-6.314;2023-02-20T12:32:16;101545.50;;;12.13;100.00
29935;BME280;19905;53.370;-6.314;2023-02-20T12:34:57;101552.72;;;12.11;100.00
29935;BME280;19905;53.370;-6.314;2023-02-20T12:37:40;101556.41;;;12.21;100.00
29935;BME280;19905;53.370;-6.314;2023-02-20T12:40:32;101570.63;;;12.07;100.00
29935;BME280;19905;53.370;-6.314;2023-02-20T12:43:16;101553.97;;;12.18;100.00
29935;BME280;19905;53.370;-6.314;2023-02-20T12:45:51;101551.44;;;12.16;100.00
29935;BME280;19905;53.370;-6.314;2023-02-20T12:48:37;101542.84;;;12.13;100.00
29935;BME280;19905;53.370;-6.314;2023-02-20T12:51:19;101534.91;;;12.13;100.00
29935;BME280;19905;53.370;-6.314;2023-02-20T12:54:00;101535.53;;;12.16;100.00
29935;BME280;19905;53.370;-6.314;2023-02-20T12:56:45;101535.22;;;12.08;100.00
29935;BME280;19905;53.370;-6.314;2023-02-20T12:59:25;101545.72;;;12.10;100.00
29935;BME280;19905;53.370;-6.314;2023-02-20T13:01:57;101542.22;;;12.09;100.00
29935;BME280;19905;53.370;-6.314;2023-02-20T13:04:37;101540.97;;;12.15;100.00
29935;BME280;19905;53.370;-6.314;2023-02-20T13:07:16;101530.03;;;12.19;100.00